createdAt,value
2024-05-09T00:00:30.391Z,94.63
2024-05-09T00:02:41.821Z,95.37
2024-05-09T00:04:46.321Z,95.49
2024-05-09T00:06:50.928Z,95.86
2024-05-09T00:08:55.267Z,96.69
2024-05-09T00:10:59.678Z,96.71
2024-05-09T00:13:05.576Z,97.34
2024-05-09T00:15:10.592Z,97.04
2024-05-09T00:17:16.454Z,97.21
2024-05-09T00:19:21.171Z,97.25
2024-05-09T00:21:25.606Z,97.67
2024-05-09T00:23:29.921Z,97.57
2024-05-09T00:25:34.201Z,97.53
2024-05-09T00:27:38.486Z,97.67
2024-05-09T00:29:42.801Z,97.21
2024-05-09T00:31:50.091Z,96.90
2024-05-09T00:33:54.728Z,96.36
2024-05-09T00:35:59.168Z,95.79
2024-05-09T00:38:04.061Z,95.31
2024-05-09T00:40:18.284Z,95.09
2024-05-09T00:42:27.181Z,94.94
2024-05-09T00:44:31.633Z,94.88
2024-05-09T00:46:36.050Z,94.80
2024-05-09T00:48:41.157Z,95.03
2024-05-09T00:50:46.588Z,94.92
2024-05-09T00:52:51.150Z,95.06
2024-05-09T00:54:58.506Z,94.89
2024-05-09T00:57:04.502Z,94.72
2024-05-09T00:59:09.343Z,94.39
2024-05-09T01:01:13.762Z,93.79
2024-05-09T01:03:18.871Z,93.31
2024-05-09T01:05:23.586Z,92.84
2024-05-09T01:07:28.175Z,92.10
2024-05-09T01:09:32.506Z,91.31
2024-05-09T01:11:39.120Z,90.40
2024-05-09T01:13:46.460Z,89.63
2024-05-09T01:15:51.045Z,89.36
2024-05-09T01:17:56.690Z,88.77
2024-05-09T01:20:01.408Z,87.93
2024-05-09T01:22:08.611Z,87.47
2024-05-09T01:24:12.931Z,87.25
2024-05-09T01:26:17.328Z,86.60
2024-05-09T01:28:21.662Z,85.89
2024-05-09T01:30:33.016Z,84.50
2024-05-09T01:32:39.820Z,83.79
2024-05-09T01:34:45.340Z,82.99
2024-05-09T01:36:49.714Z,83.04
2024-05-09T01:38:54.066Z,82.09
2024-05-09T01:41:01.573Z,82.09
2024-05-09T01:43:06.325Z,81.74
2024-05-09T01:45:10.821Z,81.75
2024-05-09T01:47:15.282Z,80.66
2024-05-09T01:49:20.153Z,80.68
2024-05-09T01:51:24.654Z,80.68
2024-05-09T01:53:29.043Z,80.61
2024-05-09T01:55:33.390Z,79.79
2024-05-09T01:57:37.744Z,79.45
2024-05-09T01:59:42.080Z,79.33
2024-05-09T02:01:56.512Z,79.28
2024-05-09T02:04:02.614Z,79.28
2024-05-09T02:06:07.433Z,79.21
2024-05-09T02:08:15.665Z,79.04
2024-05-09T02:10:25.986Z,78.97
2024-05-09T02:12:35.919Z,78.74
2024-05-09T02:14:40.367Z,78.98
2024-05-09T02:16:44.775Z,78.42
2024-05-09T02:18:49.291Z,78.46
2024-05-09T02:20:54.028Z,78.03
2024-05-09T02:22:58.407Z,77.79
2024-05-09T02:25:02.726Z,77.51
2024-05-09T02:27:07.203Z,77.61
2024-05-09T02:29:11.566Z,77.70
2024-05-09T02:31:15.937Z,77.16
2024-05-09T02:33:20.518Z,77.15
2024-05-09T02:35:25.815Z,77.34
2024-05-09T02:37:30.207Z,77.28
2024-05-09T02:39:35.216Z,77.42
2024-05-09T02:41:39.911Z,77.63
2024-05-09T02:43:44.285Z,77.57
2024-05-09T02:45:48.642Z,77.80
2024-05-09T02:47:53.222Z,77.77
2024-05-09T02:49:57.782Z,77.69
2024-05-09T02:52:05.405Z,77.76
2024-05-09T02:54:10.810Z,78.05
2024-05-09T02:56:15.167Z,78.11
2024-05-09T02:58:19.563Z,78.27
2024-05-09T03:00:29.930Z,77.90
2024-05-09T03:02:43.900Z,78.32
2024-05-09T03:04:49.529Z,78.28
2024-05-09T03:06:54.005Z,78.21
2024-05-09T03:08:58.311Z,78.50
2024-05-09T03:11:02.717Z,78.78
2024-05-09T03:13:11.178Z,78.83
2024-05-09T03:15:15.781Z,78.78
2024-05-09T03:17:20.174Z,78.53
2024-05-09T03:19:24.666Z,78.36
2024-05-09T03:21:29.077Z,78.37
2024-05-09T03:23:33.436Z,78.29
2024-05-09T03:25:38.118Z,78.59
2024-05-09T03:27:42.553Z,78.42
2024-05-09T03:29:46.896Z,78.54
2024-05-09T03:31:51.392Z,78.71
2024-05-09T03:33:56.171Z,78.56
2024-05-09T03:36:00.755Z,79.09
2024-05-09T03:38:05.393Z,79.65
2024-05-09T03:40:20.265Z,79.59
2024-05-09T03:42:27.829Z,79.92
2024-05-09T03:44:32.222Z,79.91
2024-05-09T03:46:40.569Z,80.23
2024-05-09T03:48:44.988Z,80.68
2024-05-09T03:50:49.470Z,80.93
2024-05-09T03:52:53.806Z,80.98
2024-05-09T03:54:58.203Z,81.00
2024-05-09T03:57:02.668Z,81.37
2024-05-09T03:59:07.064Z,81.05
2024-05-09T04:01:11.553Z,80.85
2024-05-09T04:03:17.237Z,80.88
2024-05-09T04:05:21.703Z,81.11
2024-05-09T04:07:26.043Z,81.29
2024-05-09T04:09:30.383Z,81.25
2024-05-09T04:11:34.952Z,81.15
2024-05-09T04:13:39.430Z,81.38
2024-05-09T04:15:46.694Z,81.67
2024-05-09T04:17:51.321Z,81.45
2024-05-09T04:19:56.480Z,81.30
2024-05-09T04:22:00.730Z,81.32
2024-05-09T04:24:08.142Z,80.99
2024-05-09T04:26:12.707Z,80.65
2024-05-09T04:28:17.042Z,80.66
2024-05-09T04:30:30.235Z,80.70
2024-05-09T04:32:40.942Z,80.24
2024-05-09T04:34:45.787Z,80.28
2024-05-09T04:36:50.183Z,80.49
2024-05-09T04:38:54.501Z,79.92
2024-05-09T04:40:58.990Z,79.89
2024-05-09T04:43:13.220Z,79.60
2024-05-09T04:45:17.559Z,79.36
2024-05-09T04:47:22.066Z,79.51
2024-05-09T04:49:26.636Z,79.69
2024-05-09T04:51:31.219Z,79.45
2024-05-09T04:53:35.588Z,79.32
2024-05-09T04:55:40.427Z,78.90
2024-05-09T04:57:48.072Z,78.29
2024-05-09T04:59:53.316Z,78.44
2024-05-09T05:01:58.237Z,77.36
2024-05-09T05:04:02.800Z,76.23
2024-05-09T05:06:07.334Z,75.83
2024-05-09T05:08:14.085Z,76.19
2024-05-09T05:10:25.315Z,75.28
2024-05-09T05:12:37.107Z,75.00
2024-05-09T05:14:44.654Z,74.39
2024-05-09T05:16:49.289Z,73.99
2024-05-09T05:18:53.779Z,73.34
2024-05-09T05:20:58.572Z,73.12
2024-05-09T05:23:03.169Z,72.22
2024-05-09T05:25:08.252Z,71.58
2024-05-09T05:27:12.639Z,71.43
2024-05-09T05:29:20.205Z,71.47
2024-05-09T05:31:28.063Z,70.95
2024-05-09T05:33:32.725Z,70.40
2024-05-09T05:35:37.423Z,70.74
2024-05-09T05:37:44.668Z,70.69
2024-05-09T05:39:49.021Z,69.94
2024-05-09T05:41:53.323Z,69.17
2024-05-09T05:43:57.694Z,68.41
2024-05-09T05:46:02.050Z,68.26
2024-05-09T05:48:08.061Z,68.78
2024-05-09T05:50:23.645Z,68.08
2024-05-09T05:52:32.173Z,67.82
2024-05-09T05:54:36.458Z,67.76
2024-05-09T05:56:40.905Z,67.89
2024-05-09T05:58:45.364Z,67.95
2024-05-09T06:00:50.456Z,67.23
2024-05-09T06:02:54.981Z,65.86
2024-05-09T06:04:59.503Z,66.18
2024-05-09T06:07:06.935Z,66.20
2024-05-09T06:09:11.277Z,65.52
2024-05-09T06:11:18.732Z,64.38
2024-05-09T06:13:23.400Z,64.89
2024-05-09T06:15:27.838Z,64.55
2024-05-09T06:17:33.614Z,64.90
2024-05-09T06:19:39.805Z,63.82
2024-05-09T06:21:44.134Z,64.13
2024-05-09T06:23:49.043Z,63.24
2024-05-09T06:25:56.185Z,62.89
2024-05-09T06:28:03.597Z,62.97
2024-05-09T06:30:14.442Z,63.24
2024-05-09T06:32:25.099Z,62.81
2024-05-09T06:34:32.407Z,62.51
2024-05-09T06:36:38.075Z,62.14
2024-05-09T06:38:42.529Z,62.08
2024-05-09T06:40:46.929Z,61.79
2024-05-09T06:42:51.336Z,62.10
2024-05-09T06:44:58.859Z,62.08
2024-05-09T06:47:03.421Z,62.05
2024-05-09T06:49:08.053Z,62.68
2024-05-09T06:51:12.658Z,62.81
2024-05-09T06:53:20.140Z,62.35
2024-05-09T06:55:24.592Z,62.59
2024-05-09T06:57:29.131Z,62.36
2024-05-09T06:59:33.540Z,61.31
2024-05-09T07:01:37.968Z,61.58
2024-05-09T07:03:45.557Z,61.25
2024-05-09T07:05:50.382Z,61.09
2024-05-09T07:07:54.832Z,61.27
2024-05-09T07:09:59.709Z,60.70
2024-05-09T07:12:10.463Z,60.63
2024-05-09T07:14:14.925Z,60.44
2024-05-09T07:16:19.309Z,60.84
2024-05-09T07:18:26.477Z,60.48
2024-05-09T07:20:34.625Z,60.21
2024-05-09T07:22:39.878Z,60.13
2024-05-09T07:24:47.069Z,59.81
2024-05-09T07:26:51.351Z,60.31
2024-05-09T07:28:55.760Z,59.14
2024-05-09T07:31:00.113Z,59.11
2024-05-09T07:33:04.995Z,59.27
2024-05-09T07:35:09.712Z,58.95
2024-05-09T07:37:15.023Z,58.81
2024-05-09T07:39:19.471Z,58.28
2024-05-09T07:41:25.194Z,58.31
2024-05-09T07:43:32.691Z,57.10
2024-05-09T07:45:48.354Z,54.30
2024-05-09T07:49:44.342Z,54.10
2024-05-09T07:53:32.782Z,55.89
2024-05-09T07:54:57.500Z,55.56
2024-05-09T07:57:02.117Z,55.48
2024-05-09T07:59:06.604Z,56.42
2024-05-09T08:01:11.164Z,55.84
2024-05-09T08:03:15.715Z,54.90
2024-05-09T08:05:20.208Z,53.80
2024-05-09T08:07:24.726Z,53.57
2024-05-09T08:09:29.958Z,53.53
2024-05-09T08:11:34.642Z,53.17
2024-05-09T08:13:39.068Z,53.30
2024-05-09T08:15:46.733Z,52.69
2024-05-09T08:17:51.521Z,52.47
2024-05-09T08:19:59.119Z,51.98
2024-05-09T08:22:03.706Z,52.12
2024-05-09T08:24:08.194Z,51.97
2024-05-09T08:26:12.672Z,51.89
2024-05-09T08:28:17.384Z,52.73
2024-05-09T08:30:29.694Z,52.48
2024-05-09T08:32:42.196Z,51.70
2024-05-09T08:34:46.687Z,50.82
2024-05-09T08:36:51.264Z,51.69
2024-05-09T08:38:55.606Z,50.92
2024-05-09T08:41:02.515Z,49.84
2024-05-09T08:43:10.493Z,48.14
2024-05-09T08:45:17.379Z,49.52
2024-05-09T08:47:22.012Z,49.57
2024-05-09T08:49:27.581Z,49.27
2024-05-09T08:51:32.330Z,49.22
2024-05-09T08:53:36.810Z,49.39
2024-05-09T08:55:43.501Z,49.40
2024-05-09T08:57:49.496Z,49.17
2024-05-09T08:59:55.663Z,48.59
2024-05-09T09:02:01.230Z,48.36
2024-05-09T09:04:07.894Z,48.48
2024-05-09T09:06:15.929Z,47.95
2024-05-09T09:08:22.298Z,46.44
2024-05-09T09:10:32.343Z,46.59
2024-05-09T09:12:37.723Z,46.53
2024-05-09T09:14:42.072Z,45.91
2024-05-09T09:16:46.455Z,45.26
2024-05-09T09:18:52.996Z,45.48
2024-05-09T09:20:59.860Z,45.22
2024-05-09T09:23:04.977Z,44.93
2024-05-09T09:25:09.648Z,43.91
2024-05-09T09:27:16.366Z,42.18
2024-05-09T09:29:21.450Z,42.74
2024-05-09T09:31:26.069Z,43.52
2024-05-09T09:33:30.892Z,43.50
2024-05-09T09:35:35.688Z,43.17
2024-05-09T09:37:40.373Z,41.71
2024-05-09T09:39:49.017Z,41.86
2024-05-09T09:41:56.072Z,41.32
2024-05-09T09:44:02.897Z,41.58
2024-05-09T09:46:12.311Z,41.04
2024-05-09T09:48:22.853Z,41.21
2024-05-09T09:50:34.208Z,41.48
2024-05-09T09:52:40.714Z,41.15
2024-05-09T09:54:45.426Z,41.65
2024-05-09T09:56:54.037Z,41.20
2024-05-09T09:59:00.093Z,41.46
2024-05-09T10:01:04.860Z,41.09
2024-05-09T10:03:09.604Z,41.58
2024-05-09T10:05:14.460Z,41.15
2024-05-09T10:07:21.199Z,41.14
2024-05-09T10:09:26.298Z,40.75
2024-05-09T10:11:37.010Z,40.58
2024-05-09T10:13:43.996Z,40.37
2024-05-09T10:15:52.294Z,40.19
2024-05-09T10:18:05.728Z,40.54
2024-05-09T10:20:21.337Z,41.02
2024-05-09T10:22:29.276Z,41.51
2024-05-09T10:24:51.184Z,41.23
2024-05-09T10:26:55.769Z,41.67
2024-05-09T10:29:01.092Z,42.24
2024-05-09T10:31:08.642Z,41.93
2024-05-09T10:33:13.502Z,40.66
2024-05-09T10:35:19.002Z,39.57
2024-05-09T10:37:24.146Z,40.08
2024-05-09T10:39:34.380Z,40.35
2024-05-09T10:41:39.239Z,40.65
2024-05-09T10:43:46.948Z,40.59
2024-05-09T10:45:51.514Z,40.57
2024-05-09T10:48:00.599Z,40.33
2024-05-09T10:50:18.049Z,40.65
2024-05-09T10:52:32.486Z,40.78
2024-05-09T10:54:40.699Z,40.84
2024-05-09T10:56:45.182Z,39.46
2024-05-09T10:58:52.400Z,38.81
2024-05-09T11:00:57.705Z,38.02
2024-05-09T11:03:05.683Z,38.59
2024-05-09T11:05:13.235Z,38.91
2024-05-09T11:07:19.712Z,39.20
2024-05-09T11:09:24.573Z,38.75
2024-05-09T11:11:29.252Z,38.65
2024-05-09T11:13:35.083Z,38.42
2024-05-09T11:15:42.919Z,38.62
2024-05-09T11:17:47.642Z,39.03
2024-05-09T11:19:52.265Z,39.11
2024-05-09T11:21:56.835Z,39.26
2024-05-09T11:24:01.819Z,39.01
2024-05-09T11:26:06.691Z,38.14
2024-05-09T11:28:12.309Z,37.13
2024-05-09T11:30:26.998Z,36.91
2024-05-09T11:32:38.762Z,37.57
2024-05-09T11:34:44.116Z,37.84
2024-05-09T11:36:49.822Z,38.18
2024-05-09T11:38:54.240Z,38.70
2024-05-09T11:40:58.621Z,38.56
2024-05-09T11:43:03.962Z,38.43
2024-05-09T11:45:08.843Z,38.21
2024-05-09T11:47:13.301Z,38.24
2024-05-09T11:49:17.841Z,37.67
2024-05-09T11:51:22.247Z,37.89
2024-05-09T11:53:26.593Z,38.08
2024-05-09T11:55:31.076Z,38.37
2024-05-09T11:57:35.734Z,38.58
2024-05-09T11:59:40.093Z,38.37
2024-05-09T12:01:44.585Z,38.44
2024-05-09T12:03:49.412Z,37.11
2024-05-09T12:05:54.187Z,37.12
2024-05-09T12:07:58.633Z,37.42
2024-05-09T12:10:06.092Z,36.42
2024-05-09T12:12:12.301Z,36.19
2024-05-09T12:14:16.727Z,34.80
2024-05-09T12:16:21.421Z,34.50
2024-05-09T12:18:25.928Z,34.66
2024-05-09T12:20:36.599Z,35.18
2024-05-09T12:22:43.571Z,35.54
2024-05-09T12:24:50.941Z,35.50
2024-05-09T12:26:55.591Z,35.90
2024-05-09T12:28:59.953Z,35.97
2024-05-09T12:31:04.689Z,35.34
2024-05-09T12:33:13.268Z,35.79
2024-05-09T12:35:19.339Z,35.82
2024-05-09T12:37:23.944Z,36.08
2024-05-09T12:39:28.486Z,36.14
2024-05-09T12:41:32.895Z,36.80
2024-05-09T12:43:37.896Z,36.40
2024-05-09T12:45:45.301Z,36.15
2024-05-09T12:47:50.030Z,36.50
2024-05-09T12:49:54.587Z,36.04
2024-05-09T12:51:59.071Z,35.49
2024-05-09T12:54:03.883Z,36.03
2024-05-09T12:56:09.563Z,35.99
2024-05-09T12:58:15.302Z,36.25
2024-05-09T13:00:27.185Z,35.97
2024-05-09T13:02:35.778Z,36.39
2024-05-09T13:04:40.463Z,36.61
2024-05-09T13:06:45.309Z,36.23
2024-05-09T13:08:49.912Z,36.34
2024-05-09T13:10:54.348Z,36.40
2024-05-09T13:12:58.780Z,36.55
2024-05-09T13:15:03.345Z,35.65
2024-05-09T13:17:07.820Z,34.91
2024-05-09T13:19:12.274Z,34.54
2024-05-09T13:21:16.687Z,34.80
2024-05-09T13:23:21.074Z,34.53
2024-05-09T13:25:25.783Z,34.31
2024-05-09T13:27:30.229Z,33.74
2024-05-09T13:29:34.642Z,33.06
2024-05-09T13:31:38.958Z,33.27
2024-05-09T13:33:46.414Z,33.52
2024-05-09T13:35:51.274Z,33.18
2024-05-09T13:37:55.838Z,33.37
2024-05-09T13:40:00.286Z,33.15
2024-05-09T13:42:05.260Z,33.13
2024-05-09T13:44:10.771Z,33.11
2024-05-09T13:46:15.198Z,33.04
2024-05-09T13:48:20.792Z,33.37
2024-05-09T13:50:33.207Z,33.66
2024-05-09T13:52:40.317Z,33.02
2024-05-09T13:54:44.694Z,33.46
2024-05-09T13:56:49.145Z,33.33
2024-05-09T13:58:53.576Z,33.85
2024-05-09T14:00:59.389Z,33.92
2024-05-09T14:03:07.007Z,33.79
2024-05-09T14:05:11.572Z,34.12
2024-05-09T14:07:16.189Z,34.31
2024-05-09T14:09:20.611Z,33.97
2024-05-09T14:11:25.164Z,33.57
2024-05-09T14:13:29.841Z,33.27
2024-05-09T14:15:34.270Z,33.48
2024-05-09T14:17:38.807Z,33.64
2024-05-09T14:19:43.322Z,33.32
2024-05-09T14:21:47.745Z,33.40
2024-05-09T14:23:52.161Z,33.06
2024-05-09T14:25:56.660Z,32.93
2024-05-09T14:28:01.160Z,33.36
2024-05-09T14:30:11.806Z,33.61
2024-05-09T14:32:19.423Z,33.95
2024-05-09T14:34:24.000Z,33.50
2024-05-09T14:36:28.847Z,32.27
2024-05-09T14:38:33.352Z,32.28
2024-05-09T14:40:42.364Z,33.03
2024-05-09T14:42:48.431Z,33.00
2024-05-09T14:44:52.772Z,32.91
2024-05-09T14:46:57.222Z,32.92
2024-05-09T14:49:01.863Z,33.32
2024-05-09T14:51:07.005Z,33.55
2024-05-09T14:53:12.330Z,33.97
2024-05-09T14:55:17.044Z,33.90
2024-05-09T14:57:21.507Z,34.08
2024-05-09T14:59:26.154Z,34.01
2024-05-09T15:01:31.375Z,34.04
2024-05-09T15:03:35.923Z,33.88
2024-05-09T15:05:40.605Z,33.94
2024-05-09T15:07:45.717Z,33.77
2024-05-09T15:09:50.153Z,33.81
2024-05-09T15:11:54.662Z,33.32
2024-05-09T15:13:59.096Z,33.13
2024-05-09T15:16:03.636Z,32.96
2024-05-09T15:18:09.560Z,33.28
2024-05-09T15:20:17.482Z,33.29
2024-05-09T15:22:25.571Z,33.23
2024-05-09T15:24:30.029Z,33.56
2024-05-09T15:26:34.686Z,33.71
2024-05-09T15:28:41.350Z,33.78
2024-05-09T15:30:46.870Z,34.09
2024-05-09T15:32:51.890Z,34.23
2024-05-09T15:34:59.368Z,33.70
2024-05-09T15:37:04.285Z,33.45
2024-05-09T15:39:08.706Z,33.54
2024-05-09T15:41:14.063Z,33.75
2024-05-09T15:43:18.512Z,33.57
2024-05-09T15:45:22.907Z,33.66
2024-05-09T15:47:27.428Z,33.65
2024-05-09T15:49:31.982Z,33.18
2024-05-09T15:51:36.474Z,33.48
2024-05-09T15:53:40.982Z,34.15
2024-05-09T15:55:45.509Z,33.96
2024-05-09T15:57:50.009Z,34.15
2024-05-09T15:59:54.541Z,34.08
2024-05-09T16:01:59.079Z,33.88
2024-05-09T16:04:03.841Z,34.15
2024-05-09T16:06:08.294Z,34.05
2024-05-09T16:08:13.635Z,33.86
2024-05-09T16:10:23.140Z,33.78
2024-05-09T16:12:30.447Z,33.61
2024-05-09T16:14:35.775Z,33.74
2024-05-09T16:16:40.483Z,34.02
2024-05-09T16:18:45.043Z,34.00
2024-05-09T16:20:50.416Z,34.42
2024-05-09T16:22:54.879Z,34.21
2024-05-09T16:24:59.315Z,34.58
2024-05-09T16:27:04.033Z,34.58
2024-05-09T16:29:08.449Z,34.59
2024-05-09T16:31:12.961Z,34.50
2024-05-09T16:33:17.899Z,34.48
2024-05-09T16:35:22.450Z,34.39
2024-05-09T16:37:29.551Z,34.32
2024-05-09T16:39:34.105Z,34.07
2024-05-09T16:41:38.469Z,34.52
2024-05-09T16:43:42.785Z,34.34
2024-05-09T16:45:47.185Z,34.33
2024-05-09T16:47:51.827Z,34.47
2024-05-09T16:49:56.264Z,34.36
2024-05-09T16:52:00.617Z,34.38
2024-05-09T16:54:04.990Z,34.40
2024-05-09T16:56:09.486Z,33.79
2024-05-09T16:58:14.177Z,33.69
2024-05-09T17:00:30.633Z,34.16
2024-05-09T17:02:43.062Z,34.27
2024-05-09T17:04:47.562Z,34.18
2024-05-09T17:06:52.167Z,34.26
2024-05-09T17:09:01.849Z,34.07
2024-05-09T17:11:09.677Z,34.09
2024-05-09T17:13:14.506Z,34.15
2024-05-09T17:15:19.046Z,34.31
2024-05-09T17:17:23.771Z,34.41
2024-05-09T17:19:28.896Z,34.44
2024-05-09T17:21:33.427Z,34.51
2024-05-09T17:23:37.818Z,34.65
2024-05-09T17:25:42.834Z,34.74
2024-05-09T17:27:47.265Z,34.68
2024-05-09T17:29:51.761Z,34.79
2024-05-09T17:31:56.111Z,34.73
2024-05-09T17:34:00.775Z,34.90
2024-05-09T17:36:05.757Z,34.94
2024-05-09T17:38:10.247Z,34.79
2024-05-09T17:40:17.330Z,34.62
2024-05-09T17:42:25.173Z,34.56
2024-05-09T17:44:29.587Z,34.66
2024-05-09T17:46:34.040Z,34.93
2024-05-09T17:48:38.660Z,35.13
2024-05-09T17:50:43.273Z,35.28
2024-05-09T17:52:47.776Z,35.46
2024-05-09T17:54:52.234Z,35.66
2024-05-09T17:56:56.687Z,35.77
2024-05-09T17:59:01.003Z,35.85
2024-05-09T18:01:05.772Z,35.99
2024-05-09T18:03:10.919Z,36.00
2024-05-09T18:05:15.977Z,36.02
2024-05-09T18:07:20.466Z,36.10
2024-05-09T18:09:24.880Z,36.18
2024-05-09T18:11:29.205Z,36.12
2024-05-09T18:13:33.700Z,36.29
2024-05-09T18:15:38.963Z,36.40
2024-05-09T18:17:43.800Z,36.49
2024-05-09T18:19:48.287Z,36.48
2024-05-09T18:21:53.275Z,36.31
2024-05-09T18:24:00.224Z,36.37
2024-05-09T18:26:05.266Z,36.46
2024-05-09T18:28:10.100Z,36.56
2024-05-09T18:30:23.798Z,36.57
2024-05-09T18:32:33.074Z,36.91
2024-05-09T18:34:37.532Z,36.91
2024-05-09T18:36:42.979Z,37.10
2024-05-09T18:38:47.972Z,37.40
2024-05-09T18:40:52.493Z,37.63
2024-05-09T18:42:57.689Z,37.75
2024-05-09T18:45:02.765Z,37.83
2024-05-09T18:47:07.283Z,37.99
2024-05-09T18:49:13.055Z,38.17
2024-05-09T18:51:20.114Z,38.39
2024-05-09T18:53:26.728Z,38.50
2024-05-09T18:55:31.244Z,38.52
2024-05-09T18:57:35.574Z,38.74
2024-05-09T18:59:40.088Z,38.89
2024-05-09T19:01:48.918Z,39.10
2024-05-09T19:03:55.656Z,39.32
2024-05-09T19:06:03.112Z,39.48
2024-05-09T19:08:09.330Z,39.69
2024-05-09T19:10:22.415Z,40.00
2024-05-09T19:12:31.772Z,40.20
2024-05-09T19:14:38.055Z,40.44
2024-05-09T19:16:43.219Z,40.64
2024-05-09T19:18:48.655Z,40.74
2024-05-09T19:20:55.242Z,40.78
2024-05-09T19:23:00.638Z,41.10
2024-05-09T19:25:05.647Z,41.36
2024-05-09T19:27:10.572Z,41.67
2024-05-09T19:29:17.934Z,42.07
2024-05-09T19:31:29.072Z,42.34
2024-05-09T19:33:33.644Z,42.43
2024-05-09T19:35:39.181Z,42.64
2024-05-09T19:37:45.836Z,42.84
2024-05-09T19:39:52.874Z,43.11
2024-05-09T19:41:58.027Z,43.48
2024-05-09T19:44:03.570Z,43.58
2024-05-09T19:46:08.763Z,43.76
2024-05-09T19:48:14.487Z,44.00
2024-05-09T19:50:27.028Z,44.23
2024-05-09T19:52:41.530Z,44.33
2024-05-09T19:54:46.742Z,44.43
2024-05-09T19:56:52.155Z,44.48
2024-05-09T19:58:57.508Z,44.64
2024-05-09T20:01:02.475Z,44.77
2024-05-09T20:03:08.268Z,44.92
2024-05-09T20:05:13.390Z,45.05
2024-05-09T20:07:18.685Z,45.20
2024-05-09T20:09:24.058Z,45.28
2024-05-09T20:11:29.587Z,45.36
2024-05-09T20:13:36.849Z,45.55
2024-05-09T20:15:44.181Z,45.72
2024-05-09T20:17:49.525Z,45.86
2024-05-09T20:19:54.947Z,46.24
2024-05-09T20:22:00.554Z,46.33
2024-05-09T20:24:06.467Z,46.58
2024-05-09T20:26:11.585Z,47.33
2024-05-09T20:28:20.548Z,47.49
2024-05-09T20:30:32.301Z,47.46
2024-05-09T20:32:39.070Z,47.23
2024-05-09T20:34:48.105Z,47.12
2024-05-09T20:36:54.200Z,46.95
2024-05-09T20:39:00.636Z,46.82
2024-05-09T20:41:10.825Z,46.69
2024-05-09T20:43:17.075Z,46.60
2024-05-09T20:45:23.068Z,46.66
2024-05-09T20:47:30.281Z,46.67
2024-05-09T20:49:34.823Z,46.78
2024-05-09T20:51:39.474Z,46.82
2024-05-09T20:53:43.915Z,46.94
2024-05-09T20:55:48.467Z,47.03
2024-05-09T20:57:53.009Z,47.07
2024-05-09T20:59:57.416Z,47.26
2024-05-09T21:02:02.049Z,47.38
2024-05-09T21:04:06.946Z,47.49
2024-05-09T21:06:11.545Z,47.67
2024-05-09T21:08:16.053Z,47.73
2024-05-09T21:10:22.805Z,47.89
2024-05-09T21:12:27.589Z,47.81
2024-05-09T21:14:32.022Z,48.07
2024-05-09T21:16:36.590Z,48.18
2024-05-09T21:18:41.356Z,48.24
2024-05-09T21:20:45.978Z,48.39
2024-05-09T21:22:50.539Z,48.62
2024-05-09T21:24:55.042Z,48.69
2024-05-09T21:26:59.650Z,48.92
2024-05-09T21:29:04.212Z,49.08
2024-05-09T21:31:09.424Z,49.25
2024-05-09T21:33:15.019Z,49.30
2024-05-09T21:35:20.023Z,49.45
2024-05-09T21:37:24.526Z,49.60
2024-05-09T21:39:28.928Z,49.77
2024-05-09T21:41:33.300Z,49.88
2024-05-09T21:43:38.984Z,50.09
2024-05-09T21:45:43.525Z,50.18
2024-05-09T21:47:47.990Z,50.35
2024-05-09T21:49:52.428Z,50.41
2024-05-09T21:51:56.789Z,50.55
2024-05-09T21:54:01.247Z,50.60
2024-05-09T21:56:06.858Z,50.68
2024-05-09T21:58:14.341Z,50.80
2024-05-09T22:00:28.658Z,50.63
2024-05-09T22:02:41.475Z,50.75
2024-05-09T22:04:46.055Z,50.78
2024-05-09T22:06:50.637Z,50.92
2024-05-09T22:08:55.161Z,50.95
2024-05-09T22:10:59.492Z,51.22
2024-05-09T22:13:04.999Z,51.20
2024-05-09T22:15:09.908Z,51.08
2024-05-09T22:17:14.280Z,51.10
2024-05-09T22:19:18.814Z,51.22
2024-05-09T22:21:23.249Z,51.16
2024-05-09T22:23:27.712Z,51.38
2024-05-09T22:25:32.736Z,51.39
2024-05-09T22:27:37.904Z,51.38
2024-05-09T22:29:42.244Z,51.45
2024-05-09T22:31:46.597Z,51.72
2024-05-09T22:33:51.258Z,51.37
2024-05-09T22:35:55.721Z,51.57
2024-05-09T22:38:00.146Z,51.58
2024-05-09T22:40:06.845Z,51.69
2024-05-09T22:42:11.426Z,51.60
2024-05-09T22:44:15.966Z,51.75
2024-05-09T22:46:20.462Z,51.83
2024-05-09T22:48:25.730Z,51.88
2024-05-09T22:50:33.319Z,52.31
2024-05-09T22:52:38.104Z,53.53
2024-05-09T22:54:42.590Z,54.14
2024-05-09T22:56:46.974Z,54.64
2024-05-09T22:58:51.350Z,54.89
2024-05-09T23:00:55.833Z,55.65
2024-05-09T23:03:00.962Z,56.03
2024-05-09T23:05:06.279Z,56.34
2024-05-09T23:07:10.881Z,56.53
2024-05-09T23:09:15.412Z,57.15
2024-05-09T23:11:19.919Z,57.49
2024-05-09T23:13:24.394Z,57.95
2024-05-09T23:15:28.910Z,58.53
2024-05-09T23:17:33.604Z,59.27
2024-05-09T23:19:38.358Z,59.58
2024-05-09T23:21:42.932Z,59.89
2024-05-09T23:23:47.327Z,60.25
2024-05-09T23:25:51.769Z,60.82
2024-05-09T23:27:56.189Z,61.30
2024-05-09T23:30:00.726Z,61.64
2024-05-09T23:32:05.665Z,61.96
2024-05-09T23:34:10.194Z,62.22
2024-05-09T23:36:14.767Z,62.40
2024-05-09T23:38:21.779Z,62.70
2024-05-09T23:40:38.166Z,62.83
2024-05-09T23:42:44.978Z,63.46
2024-05-09T23:44:49.335Z,63.50
2024-05-09T23:46:53.778Z,63.62
2024-05-09T23:48:58.294Z,63.94
2024-05-09T23:51:02.786Z,63.76
2024-05-09T23:53:08.968Z,63.96
2024-05-09T23:55:14.680Z,64.07
2024-05-09T23:57:19.045Z,64.59
2024-05-09T23:59:23.354Z,64.36
